sensor_id;sensor_type;location;lat;lon;timestamp;P1;durP1;ratioP1;P2;durP2;ratioP2
74656;SDS011;63185;45.642;13.764;2023-04-28T00:01:15;4.45;;;2.13;;
74656;SDS011;63185;45.642;13.764;2023-04-28T00:03:41;5.65;;;2.17;;
74656;SDS011;63185;45.642;13.764;2023-04-28T00:06:07;5.03;;;2.00;;
74656;SDS011;63185;45.642;13.764;2023-04-28T00:08:33;6.30;;;2.20;;
74656;SDS011;63185;45.642;13.764;2023-04-28T00:10:58;4.40;;;2.05;;
74656;SDS011;63185;45.642;13.764;2023-04-28T00:13:25;5.47;;;2.33;;
74656;SDS011;63185;45.642;13.764;2023-04-28T00:15:51;5.70;;;2.20;;
74656;SDS011;63185;45.642;13.764;2023-04-28T00:18:18;6.55;;;1.95;;
74656;SDS011;63185;45.642;13.764;2023-04-28T00:20:44;7.07;;;2.35;;
74656;SDS011;63185;45.642;13.764;2023-04-28T00:23:10;3.35;;;2.10;;
74656;SDS011;63185;45.642;13.764;2023-04-28T00:25:36;5.05;;;2.30;;
74656;SDS011;63185;45.642;13.764;2023-04-28T00:28:01;6.28;;;2.08;;
74656;SDS011;63185;45.642;13.764;2023-04-28T00:30:28;5.57;;;2.33;;
74656;SDS011;63185;45.642;13.764;2023-04-28T00:32:55;5.57;;;1.95;;
74656;SDS011;63185;45.642;13.764;2023-04-28T00:35:20;3.55;;;2.13;;
74656;SDS011;63185;45.642;13.764;2023-04-28T00:37:47;3.72;;;1.65;;
74656;SDS011;63185;45.642;13.764;2023-04-28T00:40:13;3.25;;;1.30;;
74656;SDS011;63185;45.642;13.764;2023-04-28T00:42:38;3.00;;;1.60;;
74656;SDS011;63185;45.642;13.764;2023-04-28T00:45:05;5.72;;;1.40;;
74656;SDS011;63185;45.642;13.764;2023-04-28T00:47:35;5.03;;;1.73;;
74656;SDS011;63185;45.642;13.764;2023-04-28T00:50:01;4.70;;;2.08;;
74656;SDS011;63185;45.642;13.764;2023-04-28T00:52:29;2.97;;;1.50;;
74656;SDS011;63185;45.642;13.764;2023-04-28T00:54:56;3.35;;;1.38;;
74656;SDS011;63185;45.642;13.764;2023-04-28T00:57:22;5.35;;;1.63;;
74656;SDS011;63185;45.642;13.764;2023-04-28T00:59:48;2.20;;;1.20;;
74656;SDS011;63185;45.642;13.764;2023-04-28T01:02:14;2.92;;;1.30;;
74656;SDS011;63185;45.642;13.764;2023-04-28T01:04:43;2.88;;;1.55;;
74656;SDS011;63185;45.642;13.764;2023-04-28T01:07:10;3.33;;;1.50;;
74656;SDS011;63185;45.642;13.764;2023-04-28T01:09:36;4.07;;;1.92;;
74656;SDS011;63185;45.642;13.764;2023-04-28T01:12:01;6.28;;;1.65;;
74656;SDS011;63185;45.642;13.764;2023-04-28T01:14:27;4.82;;;1.70;;
74656;SDS011;63185;45.642;13.764;2023-04-28T01:16:53;6.03;;;1.90;;
74656;SDS011;63185;45.642;13.764;2023-04-28T01:19:20;3.85;;;1.75;;
74656;SDS011;63185;45.642;13.764;2023-04-28T01:21:46;4.65;;;1.70;;
74656;SDS011;63185;45.642;13.764;2023-04-28T01:24:12;5.95;;;1.80;;
74656;SDS011;63185;45.642;13.764;2023-04-28T01:26:38;3.17;;;1.48;;
74656;SDS011;63185;45.642;13.764;2023-04-28T01:29:04;3.83;;;1.60;;
74656;SDS011;63185;45.642;13.764;2023-04-28T01:31:30;4.20;;;1.45;;
74656;SDS011;63185;45.642;13.764;2023-04-28T01:33:56;2.97;;;1.25;;
74656;SDS011;63185;45.642;13.764;2023-04-28T01:36:22;2.40;;;1.02;;
74656;SDS011;63185;45.642;13.764;2023-04-28T01:38:48;2.35;;;1.00;;
74656;SDS011;63185;45.642;13.764;2023-04-28T01:41:14;5.25;;;1.10;;
74656;SDS011;63185;45.642;13.764;2023-04-28T01:43:40;4.32;;;1.50;;
74656;SDS011;63185;45.642;13.764;2023-04-28T01:46:07;5.80;;;1.40;;
74656;SDS011;63185;45.642;13.764;2023-04-28T01:48:34;3.28;;;1.30;;
74656;SDS011;63185;45.642;13.764;2023-04-28T01:50:59;4.75;;;1.13;;
74656;SDS011;63185;45.642;13.764;2023-04-28T01:53:25;3.85;;;1.48;;
74656;SDS011;63185;45.642;13.764;2023-04-28T01:55:52;2.47;;;1.30;;
74656;SDS011;63185;45.642;13.764;2023-04-28T01:58:18;3.17;;;1.15;;
74656;SDS011;63185;45.642;13.764;2023-04-28T02:00:43;3.05;;;1.40;;
74656;SDS011;63185;45.642;13.764;2023-04-28T02:03:09;2.55;;;1.40;;
74656;SDS011;63185;45.642;13.764;2023-04-28T02:05:35;3.88;;;1.27;;
74656;SDS011;63185;45.642;13.764;2023-04-28T02:08:01;2.33;;;1.15;;
74656;SDS011;63185;45.642;13.764;2023-04-28T02:10:27;4.95;;;1.50;;
74656;SDS011;63185;45.642;13.764;2023-04-28T02:12:52;4.32;;;1.50;;
74656;SDS011;63185;45.642;13.764;2023-04-28T02:15:19;4.22;;;1.50;;
74656;SDS011;63185;45.642;13.764;2023-04-28T02:17:44;3.72;;;1.30;;
74656;SDS011;63185;45.642;13.764;2023-04-28T02:20:10;2.65;;;1.40;;
74656;SDS011;63185;45.642;13.764;2023-04-28T02:22:36;4.70;;;1.25;;
74656;SDS011;63185;45.642;13.764;2023-04-28T02:25:02;2.58;;;1.27;;
74656;SDS011;63185;45.642;13.764;2023-04-28T02:27:27;3.85;;;1.40;;
74656;SDS011;63185;45.642;13.764;2023-04-28T02:29:53;2.65;;;1.58;;
74656;SDS011;63185;45.642;13.764;2023-04-28T02:32:19;3.25;;;1.40;;
74656;SDS011;63185;45.642;13.764;2023-04-28T02:34:44;2.35;;;1.20;;
74656;SDS011;63185;45.642;13.764;2023-04-28T02:37:10;3.08;;;1.40;;
74656;SDS011;63185;45.642;13.764;2023-04-28T02:39:36;3.35;;;1.67;;
74656;SDS011;63185;45.642;13.764;2023-04-28T02:42:02;2.33;;;1.25;;
74656;SDS011;63185;45.642;13.764;2023-04-28T02:44:29;3.92;;;1.52;;
74656;SDS011;63185;45.642;13.764;2023-04-28T02:46:55;5.30;;;1.60;;
74656;SDS011;63185;45.642;13.764;2023-04-28T02:49:21;2.97;;;1.10;;
74656;SDS011;63185;45.642;13.764;2023-04-28T02:51:46;2.33;;;1.00;;
74656;SDS011;63185;45.642;13.764;2023-04-28T02:54:12;2.30;;;1.02;;
74656;SDS011;63185;45.642;13.764;2023-04-28T02:56:38;2.85;;;1.10;;
74656;SDS011;63185;45.642;13.764;2023-04-28T02:59:05;5.15;;;1.00;;
74656;SDS011;63185;45.642;13.764;2023-04-28T03:01:31;2.72;;;1.10;;
74656;SDS011;63185;45.642;13.764;2023-04-28T03:03:57;1.67;;;0.90;;
74656;SDS011;63185;45.642;13.764;2023-04-28T03:06:22;2.05;;;1.20;;
74656;SDS011;63185;45.642;13.764;2023-04-28T03:08:48;2.47;;;1.20;;
74656;SDS011;63185;45.642;13.764;2023-04-28T03:11:14;2.45;;;1.00;;
74656;SDS011;63185;45.642;13.764;2023-04-28T03:13:40;2.85;;;1.30;;
74656;SDS011;63185;45.642;13.764;2023-04-28T03:16:05;3.22;;;1.55;;
74656;SDS011;63185;45.642;13.764;2023-04-28T03:18:32;2.17;;;1.17;;
74656;SDS011;63185;45.642;13.764;2023-04-28T03:20:57;4.75;;;1.20;;
74656;SDS011;63185;45.642;13.764;2023-04-28T03:23:23;3.45;;;1.38;;
74656;SDS011;63185;45.642;13.764;2023-04-28T03:25:49;3.92;;;1.40;;
74656;SDS011;63185;45.642;13.764;2023-04-28T03:28:15;3.50;;;1.20;;
74656;SDS011;63185;45.642;13.764;2023-04-28T03:30:40;3.70;;;1.10;;
74656;SDS011;63185;45.642;13.764;2023-04-28T03:33:09;3.13;;;1.30;;
74656;SDS011;63185;45.642;13.764;2023-04-28T03:35:35;2.60;;;1.08;;
74656;SDS011;63185;45.642;13.764;2023-04-28T03:38:00;4.53;;;1.20;;
74656;SDS011;63185;45.642;13.764;2023-04-28T03:40:26;4.05;;;0.98;;
74656;SDS011;63185;45.642;13.764;2023-04-28T03:42:52;2.13;;;1.02;;
74656;SDS011;63185;45.642;13.764;2023-04-28T03:45:18;3.30;;;0.90;;
74656;SDS011;63185;45.642;13.764;2023-04-28T03:47:43;2.20;;;0.90;;
74656;SDS011;63185;45.642;13.764;2023-04-28T03:50:09;2.08;;;1.00;;
74656;SDS011;63185;45.642;13.764;2023-04-28T03:52:35;5.50;;;1.23;;
74656;SDS011;63185;45.642;13.764;2023-04-28T03:55:01;4.22;;;1.23;;
74656;SDS011;63185;45.642;13.764;2023-04-28T03:57:26;3.28;;;1.20;;
74656;SDS011;63185;45.642;13.764;2023-04-28T03:59:52;2.17;;;1.08;;
74656;SDS011;63185;45.642;13.764;2023-04-28T04:02:18;4.07;;;1.42;;
74656;SDS011;63185;45.642;13.764;2023-04-28T04:04:43;2.95;;;0.93;;
74656;SDS011;63185;45.642;13.764;2023-04-28T04:07:09;3.35;;;1.13;;
74656;SDS011;63185;45.642;13.764;2023-04-28T04:09:35;3.05;;;1.20;;
74656;SDS011;63185;45.642;13.764;2023-04-28T04:12:01;3.47;;;1.00;;
74656;SDS011;63185;45.642;13.764;2023-04-28T04:14:27;5.47;;;1.48;;
74656;SDS011;63185;45.642;13.764;2023-04-28T04:16:52;4.30;;;1.25;;
74656;SDS011;63185;45.642;13.764;2023-04-28T04:19:19;3.78;;;0.95;;
74656;SDS011;63185;45.642;13.764;2023-04-28T04:21:45;2.10;;;1.00;;
74656;SDS011;63185;45.642;13.764;2023-04-28T04:24:10;4.68;;;1.30;;
74656;SDS011;63185;45.642;13.764;2023-04-28T04:26:36;2.08;;;0.80;;
74656;SDS011;63185;45.642;13.764;2023-04-28T04:29:02;2.72;;;1.10;;
74656;SDS011;63185;45.642;13.764;2023-04-28T04:31:27;3.00;;;1.20;;
74656;SDS011;63185;45.642;13.764;2023-04-28T04:33:53;3.75;;;1.33;;
74656;SDS011;63185;45.642;13.764;2023-04-28T04:36:19;4.43;;;1.00;;
74656;SDS011;63185;45.642;13.764;2023-04-28T04:38:45;3.05;;;1.63;;
74656;SDS011;63185;45.642;13.764;2023-04-28T04:41:10;3.85;;;1.52;;
74656;SDS011;63185;45.642;13.764;2023-04-28T04:43:36;3.80;;;1.30;;
74656;SDS011;63185;45.642;13.764;2023-04-28T04:46:02;5.05;;;1.65;;
74656;SDS011;63185;45.642;13.764;2023-04-28T04:48:28;3.67;;;1.35;;
74656;SDS011;63185;45.642;13.764;2023-04-28T04:50:53;3.92;;;1.63;;
74656;SDS011;63185;45.642;13.764;2023-04-28T04:53:19;4.25;;;1.50;;
74656;SDS011;63185;45.642;13.764;2023-04-28T04:55:45;5.82;;;1.80;;
74656;SDS011;63185;45.642;13.764;2023-04-28T04:58:10;3.70;;;1.40;;
74656;SDS011;63185;45.642;13.764;2023-04-28T05:00:36;3.42;;;1.33;;
74656;SDS011;63185;45.642;13.764;2023-04-28T05:03:03;4.28;;;1.25;;
74656;SDS011;63185;45.642;13.764;2023-04-28T05:05:30;3.28;;;1.25;;
74656;SDS011;63185;45.642;13.764;2023-04-28T05:07:56;3.97;;;1.02;;
74656;SDS011;63185;45.642;13.764;2023-04-28T05:10:23;2.30;;;1.10;;
74656;SDS011;63185;45.642;13.764;2023-04-28T05:12:49;3.08;;;1.40;;
74656;SDS011;63185;45.642;13.764;2023-04-28T05:15:14;3.35;;;1.10;;
74656;SDS011;63185;45.642;13.764;2023-04-28T05:17:40;3.88;;;1.20;;
74656;SDS011;63185;45.642;13.764;2023-04-28T05:20:06;3.55;;;1.30;;
74656;SDS011;63185;45.642;13.764;2023-04-28T05:22:32;3.55;;;1.40;;
74656;SDS011;63185;45.642;13.764;2023-04-28T05:24:58;5.30;;;1.30;;
74656;SDS011;63185;45.642;13.764;2023-04-28T05:27:23;4.45;;;1.42;;
74656;SDS011;63185;45.642;13.764;2023-04-28T05:29:49;6.63;;;1.77;;
74656;SDS011;63185;45.642;13.764;2023-04-28T05:32:15;3.42;;;1.42;;
74656;SDS011;63185;45.642;13.764;2023-04-28T05:34:40;2.97;;;1.60;;
74656;SDS011;63185;45.642;13.764;2023-04-28T05:37:06;4.40;;;1.80;;
74656;SDS011;63185;45.642;13.764;2023-04-28T05:39:32;5.32;;;1.90;;
74656;SDS011;63185;45.642;13.764;2023-04-28T05:41:57;6.40;;;2.28;;
74656;SDS011;63185;45.642;13.764;2023-04-28T05:44:23;4.20;;;1.65;;
74656;SDS011;63185;45.642;13.764;2023-04-28T05:46:49;5.85;;;2.28;;
74656;SDS011;63185;45.642;13.764;2023-04-28T05:49:15;7.22;;;2.10;;
74656;SDS011;63185;45.642;13.764;2023-04-28T05:51:41;9.48;;;2.20;;
74656;SDS011;63185;45.642;13.764;2023-04-28T05:54:06;5.25;;;1.90;;
74656;SDS011;63185;45.642;13.764;2023-04-28T05:56:32;5.80;;;2.10;;
74656;SDS011;63185;45.642;13.764;2023-04-28T05:58:58;4.80;;;1.98;;
74656;SDS011;63185;45.642;13.764;2023-04-28T06:01:28;6.57;;;2.13;;
74656;SDS011;63185;45.642;13.764;2023-04-28T06:03:54;6.60;;;2.40;;
74656;SDS011;63185;45.642;13.764;2023-04-28T06:06:22;6.47;;;2.30;;
74656;SDS011;63185;45.642;13.764;2023-04-28T06:08:48;8.75;;;2.15;;
74656;SDS011;63185;45.642;13.764;2023-04-28T06:11:13;6.93;;;1.92;;
74656;SDS011;63185;45.642;13.764;2023-04-28T06:13:39;4.95;;;1.90;;
74656;SDS011;63185;45.642;13.764;2023-04-28T06:16:05;8.27;;;2.20;;
74656;SDS011;63185;45.642;13.764;2023-04-28T06:18:31;6.18;;;2.63;;
74656;SDS011;63185;45.642;13.764;2023-04-28T06:20:57;7.97;;;2.85;;
74656;SDS011;63185;45.642;13.764;2023-04-28T06:23:23;5.18;;;2.58;;
74656;SDS011;63185;45.642;13.764;2023-04-28T06:25:49;7.78;;;3.00;;
74656;SDS011;63185;45.642;13.764;2023-04-28T06:28:15;9.50;;;2.50;;
74656;SDS011;63185;45.642;13.764;2023-04-28T06:30:40;5.10;;;2.70;;
74656;SDS011;63185;45.642;13.764;2023-04-28T06:33:06;8.55;;;2.72;;
74656;SDS011;63185;45.642;13.764;2023-04-28T06:35:32;11.00;;;2.90;;
74656;SDS011;63185;45.642;13.764;2023-04-28T06:38:02;10.38;;;2.97;;
74656;SDS011;63185;45.642;13.764;2023-04-28T06:40:28;9.27;;;3.22;;
74656;SDS011;63185;45.642;13.764;2023-04-28T06:42:54;7.53;;;2.67;;
74656;SDS011;63185;45.642;13.764;2023-04-28T06:45:20;10.00;;;2.83;;
74656;SDS011;63185;45.642;13.764;2023-04-28T06:47:46;9.02;;;2.65;;
74656;SDS011;63185;45.642;13.764;2023-04-28T06:50:11;7.10;;;2.75;;
74656;SDS011;63185;45.642;13.764;2023-04-28T06:52:37;7.43;;;2.30;;
74656;SDS011;63185;45.642;13.764;2023-04-28T06:55:04;8.85;;;2.15;;
74656;SDS011;63185;45.642;13.764;2023-04-28T06:57:33;3.63;;;2.05;;
74656;SDS011;63185;45.642;13.764;2023-04-28T06:59:59;7.57;;;2.30;;
74656;SDS011;63185;45.642;13.764;2023-04-28T07:02:25;4.57;;;2.33;;
74656;SDS011;63185;45.642;13.764;2023-04-28T07:04:51;4.07;;;2.00;;
74656;SDS011;63185;45.642;13.764;2023-04-28T07:07:17;6.18;;;2.35;;
74656;SDS011;63185;45.642;13.764;2023-04-28T07:09:42;5.22;;;1.75;;
74656;SDS011;63185;45.642;13.764;2023-04-28T07:12:08;5.10;;;2.10;;
74656;SDS011;63185;45.642;13.764;2023-04-28T07:14:34;7.18;;;2.17;;
74656;SDS011;63185;45.642;13.764;2023-04-28T07:16:59;6.78;;;1.63;;
74656;SDS011;63185;45.642;13.764;2023-04-28T07:19:25;3.20;;;1.58;;
74656;SDS011;63185;45.642;13.764;2023-04-28T07:21:51;4.40;;;1.58;;
74656;SDS011;63185;45.642;13.764;2023-04-28T07:24:17;6.20;;;1.50;;
74656;SDS011;63185;45.642;13.764;2023-04-28T07:26:42;6.00;;;1.40;;
74656;SDS011;63185;45.642;13.764;2023-04-28T07:29:08;3.97;;;1.20;;
74656;SDS011;63185;45.642;13.764;2023-04-28T07:31:37;6.28;;;1.40;;
74656;SDS011;63185;45.642;13.764;2023-04-28T07:34:03;6.05;;;1.40;;
74656;SDS011;63185;45.642;13.764;2023-04-28T07:36:28;4.75;;;1.35;;
74656;SDS011;63185;45.642;13.764;2023-04-28T07:38:55;4.90;;;1.42;;
74656;SDS011;63185;45.642;13.764;2023-04-28T07:41:20;3.78;;;1.30;;
74656;SDS011;63185;45.642;13.764;2023-04-28T07:43:46;5.68;;;1.35;;
74656;SDS011;63185;45.642;13.764;2023-04-28T07:46:12;5.18;;;1.42;;
74656;SDS011;63185;45.642;13.764;2023-04-28T07:48:38;3.60;;;1.50;;
74656;SDS011;63185;45.642;13.764;2023-04-28T07:51:03;3.38;;;1.65;;
74656;SDS011;63185;45.642;13.764;2023-04-28T07:53:29;4.05;;;1.05;;
74656;SDS011;63185;45.642;13.764;2023-04-28T07:55:55;5.60;;;1.58;;
74656;SDS011;63185;45.642;13.764;2023-04-28T07:58:20;4.40;;;1.40;;
74656;SDS011;63185;45.642;13.764;2023-04-28T08:00:46;4.18;;;1.38;;
74656;SDS011;63185;45.642;13.764;2023-04-28T08:03:12;3.95;;;1.85;;
74656;SDS011;63185;45.642;13.764;2023-04-28T08:05:38;3.78;;;1.30;;
74656;SDS011;63185;45.642;13.764;2023-04-28T08:08:04;3.08;;;1.15;;
74656;SDS011;63185;45.642;13.764;2023-04-28T08:10:29;5.63;;;1.50;;
74656;SDS011;63185;45.642;13.764;2023-04-28T08:12:55;3.20;;;1.30;;
74656;SDS011;63185;45.642;13.764;2023-04-28T08:15:21;4.32;;;1.83;;
74656;SDS011;63185;45.642;13.764;2023-04-28T08:17:47;3.88;;;1.75;;
74656;SDS011;63185;45.642;13.764;2023-04-28T08:20:12;6.57;;;1.65;;
74656;SDS011;63185;45.642;13.764;2023-04-28T08:22:43;6.65;;;1.60;;
74656;SDS011;63185;45.642;13.764;2023-04-28T08:25:10;3.90;;;1.65;;
74656;SDS011;63185;45.642;13.764;2023-04-28T08:27:35;3.85;;;1.70;;
74656;SDS011;63185;45.642;13.764;2023-04-28T08:30:02;5.60;;;1.63;;
74656;SDS011;63185;45.642;13.764;2023-04-28T08:32:28;4.47;;;1.63;;
74656;SDS011;63185;45.642;13.764;2023-04-28T08:34:54;3.47;;;1.30;;
74656;SDS011;63185;45.642;13.764;2023-04-28T08:37:19;3.60;;;1.20;;
74656;SDS011;63185;45.642;13.764;2023-04-28T08:39:45;4.50;;;1.50;;
74656;SDS011;63185;45.642;13.764;2023-04-28T08:42:11;2.97;;;1.27;;
74656;SDS011;63185;45.642;13.764;2023-04-28T08:44:38;4.60;;;1.52;;
74656;SDS011;63185;45.642;13.764;2023-04-28T08:47:08;2.83;;;1.40;;
74656;SDS011;63185;45.642;13.764;2023-04-28T08:49:37;4.15;;;1.40;;
74656;SDS011;63185;45.642;13.764;2023-04-28T08:52:04;3.10;;;1.40;;
74656;SDS011;63185;45.642;13.764;2023-04-28T08:54:35;4.55;;;1.33;;
74656;SDS011;63185;45.642;13.764;2023-04-28T08:57:03;5.32;;;1.70;;
74656;SDS011;63185;45.642;13.764;2023-04-28T08:59:32;4.78;;;1.60;;
74656;SDS011;63185;45.642;13.764;2023-04-28T09:01:58;3.85;;;1.55;;
74656;SDS011;63185;45.642;13.764;2023-04-28T09:04:24;6.43;;;1.90;;
74656;SDS011;63185;45.642;13.764;2023-04-28T09:06:50;8.57;;;1.95;;
74656;SDS011;63185;45.642;13.764;2023-04-28T09:09:26;4.38;;;1.48;;
74656;SDS011;63185;45.642;13.764;2023-04-28T09:11:56;4.65;;;1.27;;
74656;SDS011;63185;45.642;13.764;2023-04-28T09:14:27;6.93;;;1.50;;
74656;SDS011;63185;45.642;13.764;2023-04-28T09:16:54;3.15;;;1.20;;
74656;SDS011;63185;45.642;13.764;2023-04-28T09:19:21;4.25;;;1.10;;
74656;SDS011;63185;45.642;13.764;2023-04-28T09:24:26;5.82;;;1.25;;
74656;SDS011;63185;45.642;13.764;2023-04-28T09:26:56;4.68;;;1.35;;
74656;SDS011;63185;45.642;13.764;2023-04-28T09:29:26;5.43;;;1.67;;
74656;SDS011;63185;45.642;13.764;2023-04-28T09:31:53;3.33;;;1.33;;
74656;SDS011;63185;45.642;13.764;2023-04-28T09:34:43;2.90;;;1.48;;
74656;SDS011;63185;45.642;13.764;2023-04-28T09:37:16;2.95;;;1.38;;
74656;SDS011;63185;45.642;13.764;2023-04-28T09:39:48;3.92;;;1.40;;
74656;SDS011;63185;45.642;13.764;2023-04-28T09:45:06;6.07;;;1.60;;
74656;SDS011;63185;45.642;13.764;2023-04-28T09:47:36;3.60;;;1.20;;
74656;SDS011;63185;45.642;13.764;2023-04-28T09:50:07;3.10;;;1.30;;
74656;SDS011;63185;45.642;13.764;2023-04-28T09:52:36;6.57;;;2.00;;
74656;SDS011;63185;45.642;13.764;2023-04-28T09:55:03;6.30;;;2.33;;
74656;SDS011;63185;45.642;13.764;2023-04-28T09:57:31;5.80;;;2.17;;
74656;SDS011;63185;45.642;13.764;2023-04-28T09:59:58;4.70;;;1.80;;
74656;SDS011;63185;45.642;13.764;2023-04-28T10:02:25;5.35;;;2.15;;
74656;SDS011;63185;45.642;13.764;2023-04-28T10:04:51;6.03;;;1.17;;
74656;SDS011;63185;45.642;13.764;2023-04-28T10:07:17;4.07;;;1.25;;
74656;SDS011;63185;45.642;13.764;2023-04-28T10:09:48;2.67;;;1.10;;
74656;SDS011;63185;45.642;13.764;2023-04-28T10:12:18;3.80;;;1.42;;
74656;SDS011;63185;45.642;13.764;2023-04-28T10:14:45;6.20;;;1.20;;
74656;SDS011;63185;45.642;13.764;2023-04-28T10:17:14;4.47;;;1.15;;
74656;SDS011;63185;45.642;13.764;2023-04-28T10:19:42;3.70;;;1.50;;
74656;SDS011;63185;45.642;13.764;2023-04-28T10:27:41;4.43;;;1.30;;
74656;SDS011;63185;45.642;13.764;2023-04-28T10:30:09;4.68;;;1.30;;
74656;SDS011;63185;45.642;13.764;2023-04-28T10:32:45;3.30;;;1.30;;
74656;SDS011;63185;45.642;13.764;2023-04-28T10:40:30;5.43;;;1.65;;
74656;SDS011;63185;45.642;13.764;2023-04-28T10:42:56;2.80;;;1.40;;
74656;SDS011;63185;45.642;13.764;2023-04-28T10:48:18;3.63;;;1.50;;
74656;SDS011;63185;45.642;13.764;2023-04-28T11:08:50;2.67;;;1.27;;
74656;SDS011;63185;45.642;13.764;2023-04-28T11:11:20;2.75;;;0.90;;
74656;SDS011;63185;45.642;13.764;2023-04-28T11:13:50;4.55;;;1.27;;
74656;SDS011;63185;45.642;13.764;2023-04-28T11:16:19;3.60;;;1.45;;
74656;SDS011;63185;45.642;13.764;2023-04-28T11:19:07;2.97;;;1.20;;
74656;SDS011;63185;45.642;13.764;2023-04-28T11:21:34;2.28;;;1.10;;
74656;SDS011;63185;45.642;13.764;2023-04-28T11:23:59;2.47;;;1.20;;
74656;SDS011;63185;45.642;13.764;2023-04-28T11:26:35;5.13;;;1.08;;
74656;SDS011;63185;45.642;13.764;2023-04-28T11:29:02;2.55;;;1.00;;
74656;SDS011;63185;45.642;13.764;2023-04-28T11:31:28;1.88;;;0.80;;
74656;SDS011;63185;45.642;13.764;2023-04-28T11:33:58;2.55;;;1.02;;
74656;SDS011;63185;45.642;13.764;2023-04-28T11:36:35;3.15;;;0.98;;
74656;SDS011;63185;45.642;13.764;2023-04-28T11:39:02;6.18;;;1.10;;
74656;SDS011;63185;45.642;13.764;2023-04-28T11:41:35;1.88;;;0.90;;
74656;SDS011;63185;45.642;13.764;2023-04-28T11:46:45;3.05;;;1.27;;
74656;SDS011;63185;45.642;13.764;2023-04-28T11:49:30;5.47;;;1.15;;
74656;SDS011;63185;45.642;13.764;2023-04-28T11:52:07;4.22;;;1.10;;
74656;SDS011;63185;45.642;13.764;2023-04-28T11:54:34;2.55;;;1.10;;
74656;SDS011;63185;45.642;13.764;2023-04-28T11:57:01;1.73;;;1.00;;
74656;SDS011;63185;45.642;13.764;2023-04-28T11:59:38;1.77;;;1.00;;
74656;SDS011;63185;45.642;13.764;2023-04-28T12:02:04;2.90;;;1.10;;
74656;SDS011;63185;45.642;13.764;2023-04-28T12:04:32;3.20;;;1.00;;
74656;SDS011;63185;45.642;13.764;2023-04-28T12:07:03;3.00;;;1.10;;
74656;SDS011;63185;45.642;13.764;2023-04-28T12:09:31;2.40;;;0.90;;
74656;SDS011;63185;45.642;13.764;2023-04-28T12:11:59;3.22;;;1.30;;
74656;SDS011;63185;45.642;13.764;2023-04-28T12:14:27;2.72;;;1.02;;
74656;SDS011;63185;45.642;13.764;2023-04-28T12:16:53;2.60;;;0.80;;
74656;SDS011;63185;45.642;13.764;2023-04-28T12:19:19;2.10;;;0.70;;
74656;SDS011;63185;45.642;13.764;2023-04-28T12:22:06;1.60;;;0.90;;
74656;SDS011;63185;45.642;13.764;2023-04-28T12:24:32;1.75;;;0.77;;
74656;SDS011;63185;45.642;13.764;2023-04-28T12:29:49;3.83;;;0.98;;
74656;SDS011;63185;45.642;13.764;2023-04-28T12:32:15;3.00;;;0.90;;
74656;SDS011;63185;45.642;13.764;2023-04-28T12:34:43;3.30;;;1.00;;
74656;SDS011;63185;45.642;13.764;2023-04-28T12:37:10;3.75;;;1.00;;
74656;SDS011;63185;45.642;13.764;2023-04-28T12:39:37;2.72;;;1.15;;
74656;SDS011;63185;45.642;13.764;2023-04-28T12:42:03;2.50;;;0.77;;
74656;SDS011;63185;45.642;13.764;2023-04-28T12:44:34;2.35;;;0.80;;
74656;SDS011;63185;45.642;13.764;2023-04-28T12:47:07;2.95;;;1.10;;
74656;SDS011;63185;45.642;13.764;2023-04-28T12:49:35;3.10;;;0.95;;
74656;SDS011;63185;45.642;13.764;2023-04-28T12:52:01;2.08;;;0.80;;
74656;SDS011;63185;45.642;13.764;2023-04-28T12:54:28;1.52;;;0.70;;
74656;SDS011;63185;45.642;13.764;2023-04-28T12:56:54;1.65;;;0.80;;
74656;SDS011;63185;45.642;13.764;2023-04-28T12:59:20;3.42;;;0.90;;
74656;SDS011;63185;45.642;13.764;2023-04-28T13:01:46;3.08;;;0.90;;
74656;SDS011;63185;45.642;13.764;2023-04-28T13:04:13;1.60;;;1.00;;
74656;SDS011;63185;45.642;13.764;2023-04-28T13:06:38;2.30;;;0.88;;
74656;SDS011;63185;45.642;13.764;2023-04-28T13:09:08;4.38;;;0.90;;
74656;SDS011;63185;45.642;13.764;2023-04-28T13:11:37;2.42;;;1.13;;
74656;SDS011;63185;45.642;13.764;2023-04-28T13:14:03;3.50;;;0.85;;
74656;SDS011;63185;45.642;13.764;2023-04-28T13:16:29;4.90;;;0.90;;
74656;SDS011;63185;45.642;13.764;2023-04-28T13:18:55;1.20;;;0.63;;
74656;SDS011;63185;45.642;13.764;2023-04-28T13:21:24;1.27;;;0.73;;
74656;SDS011;63185;45.642;13.764;2023-04-28T13:23:51;1.63;;;0.70;;
74656;SDS011;63185;45.642;13.764;2023-04-28T13:26:18;2.65;;;0.77;;
74656;SDS011;63185;45.642;13.764;2023-04-28T13:28:47;4.32;;;0.70;;
74656;SDS011;63185;45.642;13.764;2023-04-28T13:31:13;1.60;;;0.77;;
74656;SDS011;63185;45.642;13.764;2023-04-28T13:33:39;1.33;;;0.60;;
74656;SDS011;63185;45.642;13.764;2023-04-28T13:36:05;1.60;;;0.80;;
74656;SDS011;63185;45.642;13.764;2023-04-28T13:38:32;2.55;;;0.60;;
74656;SDS011;63185;45.642;13.764;2023-04-28T13:40:58;3.05;;;0.90;;
74656;SDS011;63185;45.642;13.764;2023-04-28T13:43:24;3.22;;;0.77;;
74656;SDS011;63185;45.642;13.764;2023-04-28T13:45:50;1.35;;;0.63;;
74656;SDS011;63185;45.642;13.764;2023-04-28T13:48:17;1.67;;;0.70;;
74656;SDS011;63185;45.642;13.764;2023-04-28T13:50:43;2.75;;;0.90;;
74656;SDS011;63185;45.642;13.764;2023-04-28T13:53:08;3.53;;;1.23;;
74656;SDS011;63185;45.642;13.764;2023-04-28T13:55:35;1.42;;;0.70;;
74656;SDS011;63185;45.642;13.764;2023-04-28T13:58:01;1.55;;;0.55;;
74656;SDS011;63185;45.642;13.764;2023-04-28T14:00:29;1.45;;;0.60;;
74656;SDS011;63185;45.642;13.764;2023-04-28T14:02:59;2.97;;;0.60;;
74656;SDS011;63185;45.642;13.764;2023-04-28T14:05:25;3.80;;;0.93;;
74656;SDS011;63185;45.642;13.764;2023-04-28T14:07:54;1.90;;;0.60;;
74656;SDS011;63185;45.642;13.764;2023-04-28T14:10:20;1.27;;;0.60;;
74656;SDS011;63185;45.642;13.764;2023-04-28T14:12:46;1.92;;;0.43;;
74656;SDS011;63185;45.642;13.764;2023-04-28T14:15:13;1.45;;;0.70;;
74656;SDS011;63185;45.642;13.764;2023-04-28T14:17:39;1.25;;;0.60;;
74656;SDS011;63185;45.642;13.764;2023-04-28T14:20:05;2.25;;;0.70;;
74656;SDS011;63185;45.642;13.764;2023-04-28T14:22:32;1.70;;;0.73;;
74656;SDS011;63185;45.642;13.764;2023-04-28T14:24:57;2.88;;;0.90;;
74656;SDS011;63185;45.642;13.764;2023-04-28T14:27:23;2.08;;;0.80;;
74656;SDS011;63185;45.642;13.764;2023-04-28T14:29:49;4.28;;;1.40;;
74656;SDS011;63185;45.642;13.764;2023-04-28T14:32:15;3.53;;;1.17;;
74656;SDS011;63185;45.642;13.764;2023-04-28T14:34:44;4.43;;;1.45;;
74656;SDS011;63185;45.642;13.764;2023-04-28T14:37:13;3.22;;;1.20;;
74656;SDS011;63185;45.642;13.764;2023-04-28T14:39:40;4.00;;;1.50;;
74656;SDS011;63185;45.642;13.764;2023-04-28T14:42:07;2.38;;;0.90;;
74656;SDS011;63185;45.642;13.764;2023-04-28T14:44:33;4.35;;;1.15;;
74656;SDS011;63185;45.642;13.764;2023-04-28T14:46:59;2.05;;;1.10;;
74656;SDS011;63185;45.642;13.764;2023-04-28T14:49:26;4.00;;;1.20;;
74656;SDS011;63185;45.642;13.764;2023-04-28T14:51:52;2.85;;;1.25;;
74656;SDS011;63185;45.642;13.764;2023-04-28T14:54:18;6.38;;;1.02;;
74656;SDS011;63185;45.642;13.764;2023-04-28T14:56:44;8.57;;;1.50;;
74656;SDS011;63185;45.642;13.764;2023-04-28T14:59:09;3.83;;;1.10;;
74656;SDS011;63185;45.642;13.764;2023-04-28T15:01:35;3.78;;;1.08;;
74656;SDS011;63185;45.642;13.764;2023-04-28T15:04:01;3.10;;;1.08;;
74656;SDS011;63185;45.642;13.764;2023-04-28T15:06:28;2.83;;;1.20;;
74656;SDS011;63185;45.642;13.764;2023-04-28T15:08:53;4.60;;;1.30;;
74656;SDS011;63185;45.642;13.764;2023-04-28T15:11:19;2.50;;;1.00;;
74656;SDS011;63185;45.642;13.764;2023-04-28T15:13:45;3.85;;;1.00;;